Terminal Aerodrome Forecast
Issued by NWS Chicago, IL

Home | Current Version | Previous Version | Text Only | Print | Product List | Glossary On
Versions: 1 2 3 4 5 6 7 8 9 10 11 12 13 14 15 16 17 18 19 20 21 22 23 24
000
FTUS43 KLOT 271145
TAFRFD
TAF
KRFD 271145Z 2712/2812 VRB03KT 5SM BR SCT250
     FM271400 08006KT P6SM BKN250
     FM280200 10006KT P6SM BKN080
     FM280900 08008KT 6SM -SHRA SCT025 BKN080=

USA.gov is the U.S. government's official web portal to all federal, state and local government web resources and services.